Terminal Aerodrome Forecast
Issued by NWS Sterling, VA

Home | Current Version | Previous Version | Text Only | Print | Product List | Glossary On
Versions: 1 2 3 4 5 6 7 8 9 10 11 12 13 14 15 16 17 18 19 20 21 22 23
000
FTUS41 KLWX 281728
TAFBWI
TAF
KBWI 281728Z 2818/2924 10005KT 2SM -TSRA BR VCTS BKN011CB OVC021
      TEMPO 2818/2819 12020KT 1SM -TSRA BKN010CB
     FM290200 07008KT 3SM SHRA VCTS OVC010CB
     FM291000 05008KT P6SM SHRA OVC015
     FM291200 03009KT 3SM SHRA OVC025
     FM291500 02013KT P6SM SHRA OVC030
     FM291800 01014KT P6SM SHRA OVC050=

USA.gov is the U.S. government's official web portal to all federal, state and local government web resources and services.